BES weather

Brest Bretagne Airport
Brest/Guipavas, Brittany, France

Public forecast

Using degrees Celsius for public forecast. Weather courtesy of forecast.io.

Current aviation weather report (METAR) for Brest Bretagne Airport

Retrieved 2020/06/02 23:00 UTC (21 minutes ago):

LFRB 022300Z AUTO 34005KT CAVOK 12/10 Q1015 NOSIG

Aviation forecast (TAF) for Brest Bretagne Airport

Retrieved 2020/06/02 18:21 UTC (5 hours ago):

TAF LFRB 021700Z 0218/0324 01009KT CAVOK TEMPO 0312/0318 SHRA SCT070CB